sensor_id;sensor_type;location;lat;lon;timestamp;P1;durP1;ratioP1;P2;durP2;ratioP2
37771;SDS011;23610;59.380;24.642;2023-07-22T00:00:03;5.38;;;2.45;;
37771;SDS011;23610;59.380;24.642;2023-07-22T00:05:07;3.53;;;1.90;;
37771;SDS011;23610;59.380;24.642;2023-07-22T00:10:11;4.20;;;1.70;;
37771;SDS011;23610;59.380;24.642;2023-07-22T00:15:14;3.22;;;2.28;;
37771;SDS011;23610;59.380;24.642;2023-07-22T00:20:17;4.07;;;1.60;;
37771;SDS011;23610;59.380;24.642;2023-07-22T00:25:21;10.93;;;2.00;;
37771;SDS011;23610;59.380;24.642;2023-07-22T00:30:24;4.90;;;1.45;;
37771;SDS011;23610;59.380;24.642;2023-07-22T00:35:27;4.50;;;1.90;;
37771;SDS011;23610;59.380;24.642;2023-07-22T00:40:30;2.92;;;1.60;;
37771;SDS011;23610;59.380;24.642;2023-07-22T00:45:33;2.33;;;1.67;;
37771;SDS011;23610;59.380;24.642;2023-07-22T00:50:36;10.55;;;1.70;;
37771;SDS011;23610;59.380;24.642;2023-07-22T00:55:40;6.27;;;1.80;;
37771;SDS011;23610;59.380;24.642;2023-07-22T01:00:43;4.30;;;2.00;;
37771;SDS011;23610;59.380;24.642;2023-07-22T01:05:46;5.07;;;1.58;;
37771;SDS011;23610;59.380;24.642;2023-07-22T01:10:49;3.50;;;1.48;;
37771;SDS011;23610;59.380;24.642;2023-07-22T01:15:52;3.00;;;1.25;;
37771;SDS011;23610;59.380;24.642;2023-07-22T01:20:55;2.92;;;1.50;;
37771;SDS011;23610;59.380;24.642;2023-07-22T01:25:57;10.00;;;2.38;;
37771;SDS011;23610;59.380;24.642;2023-07-22T01:31:01;4.95;;;1.60;;
37771;SDS011;23610;59.380;24.642;2023-07-22T01:36:04;7.10;;;2.05;;
37771;SDS011;23610;59.380;24.642;2023-07-22T01:41:06;5.13;;;2.13;;
37771;SDS011;23610;59.380;24.642;2023-07-22T01:46:09;5.57;;;2.00;;
37771;SDS011;23610;59.380;24.642;2023-07-22T01:51:11;8.38;;;2.42;;
37771;SDS011;23610;59.380;24.642;2023-07-22T01:56:14;7.97;;;2.08;;
37771;SDS011;23610;59.380;24.642;2023-07-22T02:01:22;6.97;;;2.38;;
37771;SDS011;23610;59.380;24.642;2023-07-22T02:06:24;6.07;;;2.17;;
37771;SDS011;23610;59.380;24.642;2023-07-22T02:11:29;4.28;;;1.73;;
37771;SDS011;23610;59.380;24.642;2023-07-22T02:16:35;7.00;;;2.03;;
37771;SDS011;23610;59.380;24.642;2023-07-22T02:21:38;8.77;;;2.55;;
37771;SDS011;23610;59.380;24.642;2023-07-22T02:26:41;4.57;;;1.75;;
37771;SDS011;23610;59.380;24.642;2023-07-22T02:31:44;7.60;;;2.67;;
37771;SDS011;23610;59.380;24.642;2023-07-22T02:36:47;7.65;;;2.30;;
37771;SDS011;23610;59.380;24.642;2023-07-22T02:41:50;6.93;;;2.20;;
37771;SDS011;23610;59.380;24.642;2023-07-22T02:46:53;6.25;;;2.22;;
37771;SDS011;23610;59.380;24.642;2023-07-22T02:51:55;8.80;;;2.33;;
37771;SDS011;23610;59.380;24.642;2023-07-22T02:56:58;7.72;;;2.35;;
37771;SDS011;23610;59.380;24.642;2023-07-22T03:02:01;5.80;;;2.70;;
37771;SDS011;23610;59.380;24.642;2023-07-22T03:07:04;6.25;;;2.35;;
37771;SDS011;23610;59.380;24.642;2023-07-22T03:12:08;7.55;;;2.53;;
37771;SDS011;23610;59.380;24.642;2023-07-22T03:17:10;8.90;;;2.95;;
37771;SDS011;23610;59.380;24.642;2023-07-22T03:22:18;10.45;;;3.38;;
37771;SDS011;23610;59.380;24.642;2023-07-22T03:27:20;8.45;;;2.80;;
37771;SDS011;23610;59.380;24.642;2023-07-22T03:32:23;7.10;;;2.33;;
37771;SDS011;23610;59.380;24.642;2023-07-22T03:37:26;3.70;;;2.10;;
37771;SDS011;23610;59.380;24.642;2023-07-22T03:42:29;6.32;;;2.38;;
37771;SDS011;23610;59.380;24.642;2023-07-22T03:47:31;5.20;;;3.30;;
37771;SDS011;23610;59.380;24.642;2023-07-22T03:52:34;5.68;;;2.60;;
37771;SDS011;23610;59.380;24.642;2023-07-22T03:57:36;5.57;;;2.70;;
37771;SDS011;23610;59.380;24.642;2023-07-22T04:02:39;7.10;;;2.05;;
37771;SDS011;23610;59.380;24.642;2023-07-22T04:07:43;5.93;;;2.35;;
37771;SDS011;23610;59.380;24.642;2023-07-22T04:12:47;8.13;;;3.42;;
37771;SDS011;23610;59.380;24.642;2023-07-22T04:17:49;10.32;;;3.08;;
37771;SDS011;23610;59.380;24.642;2023-07-22T04:22:52;6.10;;;2.60;;
37771;SDS011;23610;59.380;24.642;2023-07-22T04:27:55;6.72;;;2.47;;
37771;SDS011;23610;59.380;24.642;2023-07-22T04:32:57;7.22;;;3.25;;
37771;SDS011;23610;59.380;24.642;2023-07-22T04:38:03;6.53;;;2.55;;
37771;SDS011;23610;59.380;24.642;2023-07-22T04:43:05;10.40;;;3.28;;
37771;SDS011;23610;59.380;24.642;2023-07-22T04:48:08;5.03;;;2.58;;
37771;SDS011;23610;59.380;24.642;2023-07-22T04:53:11;5.95;;;2.05;;
37771;SDS011;23610;59.380;24.642;2023-07-22T04:58:15;5.57;;;2.10;;
37771;SDS011;23610;59.380;24.642;2023-07-22T05:03:17;4.82;;;2.42;;
37771;SDS011;23610;59.380;24.642;2023-07-22T05:08:20;6.22;;;2.13;;
37771;SDS011;23610;59.380;24.642;2023-07-22T05:13:23;7.60;;;2.45;;
37771;SDS011;23610;59.380;24.642;2023-07-22T05:23:30;5.30;;;2.13;;
37771;SDS011;23610;59.380;24.642;2023-07-22T05:28:33;5.93;;;2.63;;
37771;SDS011;23610;59.380;24.642;2023-07-22T05:33:36;6.35;;;2.47;;
37771;SDS011;23610;59.380;24.642;2023-07-22T05:38:39;11.30;;;2.55;;
37771;SDS011;23610;59.380;24.642;2023-07-22T05:43:41;3.75;;;1.90;;
37771;SDS011;23610;59.380;24.642;2023-07-22T05:48:44;4.95;;;1.92;;
37771;SDS011;23610;59.380;24.642;2023-07-22T05:53:46;9.45;;;2.50;;
37771;SDS011;23610;59.380;24.642;2023-07-22T05:58:49;5.03;;;1.70;;
37771;SDS011;23610;59.380;24.642;2023-07-22T06:03:52;7.30;;;2.53;;
37771;SDS011;23610;59.380;24.642;2023-07-22T06:08:54;2.45;;;1.98;;
37771;SDS011;23610;59.380;24.642;2023-07-22T06:13:57;3.75;;;2.22;;
37771;SDS011;23610;59.380;24.642;2023-07-22T06:19:00;3.20;;;1.20;;
37771;SDS011;23610;59.380;24.642;2023-07-22T06:24:02;4.18;;;2.20;;
37771;SDS011;23610;59.380;24.642;2023-07-22T06:29:05;4.15;;;1.38;;
37771;SDS011;23610;59.380;24.642;2023-07-22T06:34:08;3.17;;;1.55;;
37771;SDS011;23610;59.380;24.642;2023-07-22T06:39:10;3.38;;;1.42;;
37771;SDS011;23610;59.380;24.642;2023-07-22T06:44:13;3.28;;;1.40;;
37771;SDS011;23610;59.380;24.642;2023-07-22T06:49:16;2.28;;;1.00;;
37771;SDS011;23610;59.380;24.642;2023-07-22T06:54:18;4.13;;;1.35;;
37771;SDS011;23610;59.380;24.642;2023-07-22T06:59:21;3.70;;;1.40;;
37771;SDS011;23610;59.380;24.642;2023-07-22T07:04:23;2.75;;;1.60;;
37771;SDS011;23610;59.380;24.642;2023-07-22T07:09:26;1.95;;;1.00;;
37771;SDS011;23610;59.380;24.642;2023-07-22T07:14:29;8.38;;;1.40;;
37771;SDS011;23610;59.380;24.642;2023-07-22T07:19:32;4.28;;;1.45;;
37771;SDS011;23610;59.380;24.642;2023-07-22T07:24:34;4.38;;;1.20;;
37771;SDS011;23610;59.380;24.642;2023-07-22T07:29:43;2.85;;;1.42;;
37771;SDS011;23610;59.380;24.642;2023-07-22T07:34:55;2.83;;;1.20;;
37771;SDS011;23610;59.380;24.642;2023-07-22T07:39:57;4.40;;;1.38;;
37771;SDS011;23610;59.380;24.642;2023-07-22T07:45:01;2.03;;;1.38;;
37771;SDS011;23610;59.380;24.642;2023-07-22T07:50:04;2.78;;;1.30;;
37771;SDS011;23610;59.380;24.642;2023-07-22T07:55:08;4.60;;;1.03;;
37771;SDS011;23610;59.380;24.642;2023-07-22T08:00:11;10.95;;;2.00;;
37771;SDS011;23610;59.380;24.642;2023-07-22T08:05:14;16.20;;;2.75;;
37771;SDS011;23610;59.380;24.642;2023-07-22T08:10:17;11.88;;;1.95;;
37771;SDS011;23610;59.380;24.642;2023-07-22T08:15:20;7.97;;;2.53;;
37771;SDS011;23610;59.380;24.642;2023-07-22T08:20:23;2.38;;;1.42;;
37771;SDS011;23610;59.380;24.642;2023-07-22T08:25:26;5.13;;;1.90;;
37771;SDS011;23610;59.380;24.642;2023-07-22T08:30:28;4.20;;;1.45;;
37771;SDS011;23610;59.380;24.642;2023-07-22T08:35:31;7.07;;;2.08;;
37771;SDS011;23610;59.380;24.642;2023-07-22T08:40:36;7.17;;;2.10;;
37771;SDS011;23610;59.380;24.642;2023-07-22T08:45:40;4.65;;;2.20;;
37771;SDS011;23610;59.380;24.642;2023-07-22T08:50:45;3.25;;;2.13;;
37771;SDS011;23610;59.380;24.642;2023-07-22T08:55:56;4.00;;;1.90;;
37771;SDS011;23610;59.380;24.642;2023-07-22T09:00:59;4.13;;;1.95;;
37771;SDS011;23610;59.380;24.642;2023-07-22T09:06:02;2.40;;;1.83;;
37771;SDS011;23610;59.380;24.642;2023-07-22T09:11:07;1.73;;;1.63;;
37771;SDS011;23610;59.380;24.642;2023-07-22T09:16:10;3.15;;;1.80;;
37771;SDS011;23610;59.380;24.642;2023-07-22T09:21:14;4.03;;;1.58;;
37771;SDS011;23610;59.380;24.642;2023-07-22T09:26:17;5.28;;;1.95;;
37771;SDS011;23610;59.380;24.642;2023-07-22T09:31:21;2.53;;;1.73;;
37771;SDS011;23610;59.380;24.642;2023-07-22T09:36:25;2.75;;;1.55;;
37771;SDS011;23610;59.380;24.642;2023-07-22T09:41:29;2.38;;;1.92;;
37771;SDS011;23610;59.380;24.642;2023-07-22T09:46:32;4.93;;;1.63;;
37771;SDS011;23610;59.380;24.642;2023-07-22T09:51:39;1.60;;;1.50;;
37771;SDS011;23610;59.380;24.642;2023-07-22T09:57:01;2.92;;;1.42;;
37771;SDS011;23610;59.380;24.642;2023-07-22T10:02:06;1.23;;;1.00;;
37771;SDS011;23610;59.380;24.642;2023-07-22T10:07:12;1.10;;;0.93;;
37771;SDS011;23610;59.380;24.642;2023-07-22T10:12:16;17.37;;;1.37;;
37771;SDS011;23610;59.380;24.642;2023-07-22T10:17:19;1.73;;;1.00;;
37771;SDS011;23610;59.380;24.642;2023-07-22T10:22:23;0.67;;;0.67;;
37771;SDS011;23610;59.380;24.642;2023-07-22T10:27:25;1.85;;;0.82;;
37771;SDS011;23610;59.380;24.642;2023-07-22T10:32:31;2.47;;;0.90;;
37771;SDS011;23610;59.380;24.642;2023-07-22T10:37:46;1.23;;;0.90;;
37771;SDS011;23610;59.380;24.642;2023-07-22T10:43:00;7.07;;;2.72;;
37771;SDS011;23610;59.380;24.642;2023-07-22T10:48:10;6.65;;;1.52;;
37771;SDS011;23610;59.380;24.642;2023-07-22T10:58:25;3.15;;;2.13;;
37771;SDS011;23610;59.380;24.642;2023-07-22T11:03:28;3.75;;;1.23;;
37771;SDS011;23610;59.380;24.642;2023-07-22T11:08:38;5.15;;;1.38;;
37771;SDS011;23610;59.380;24.642;2023-07-22T11:13:43;3.22;;;1.70;;
37771;SDS011;23610;59.380;24.642;2023-07-22T11:18:46;2.03;;;1.20;;
37771;SDS011;23610;59.380;24.642;2023-07-22T11:23:48;3.55;;;1.58;;
37771;SDS011;23610;59.380;24.642;2023-07-22T11:28:51;2.40;;;1.20;;
37771;SDS011;23610;59.380;24.642;2023-07-22T11:33:55;6.50;;;1.92;;
37771;SDS011;23610;59.380;24.642;2023-07-22T11:39:03;4.13;;;1.30;;
37771;SDS011;23610;59.380;24.642;2023-07-22T11:44:07;5.00;;;1.95;;
37771;SDS011;23610;59.380;24.642;2023-07-22T11:49:11;3.15;;;1.88;;
37771;SDS011;23610;59.380;24.642;2023-07-22T11:54:14;1.58;;;1.48;;
37771;SDS011;23610;59.380;24.642;2023-07-22T11:59:32;19.48;;;2.05;;
37771;SDS011;23610;59.380;24.642;2023-07-22T12:04:37;2.35;;;2.15;;
37771;SDS011;23610;59.380;24.642;2023-07-22T12:09:40;2.20;;;1.23;;
37771;SDS011;23610;59.380;24.642;2023-07-22T12:14:48;1.92;;;1.55;;
37771;SDS011;23610;59.380;24.642;2023-07-22T12:19:52;1.80;;;1.05;;
37771;SDS011;23610;59.380;24.642;2023-07-22T12:24:58;2.30;;;1.13;;
37771;SDS011;23610;59.380;24.642;2023-07-22T12:30:00;2.08;;;1.00;;
37771;SDS011;23610;59.380;24.642;2023-07-22T12:35:04;8.77;;;1.38;;
37771;SDS011;23610;59.380;24.642;2023-07-22T12:40:08;3.92;;;1.95;;
37771;SDS011;23610;59.380;24.642;2023-07-22T12:45:14;4.50;;;1.95;;
37771;SDS011;23610;59.380;24.642;2023-07-22T12:50:16;2.45;;;1.90;;
37771;SDS011;23610;59.380;24.642;2023-07-22T12:55:19;3.13;;;1.95;;
37771;SDS011;23610;59.380;24.642;2023-07-22T13:00:21;2.65;;;2.42;;
37771;SDS011;23610;59.380;24.642;2023-07-22T13:05:24;2.67;;;1.33;;
37771;SDS011;23610;59.380;24.642;2023-07-22T13:10:28;3.35;;;1.50;;
37771;SDS011;23610;59.380;24.642;2023-07-22T13:15:31;2.25;;;1.38;;
37771;SDS011;23610;59.380;24.642;2023-07-22T13:20:34;2.17;;;1.20;;
37771;SDS011;23610;59.380;24.642;2023-07-22T13:25:37;5.25;;;2.47;;
37771;SDS011;23610;59.380;24.642;2023-07-22T13:30:40;3.60;;;1.52;;
37771;SDS011;23610;59.380;24.642;2023-07-22T13:35:42;5.03;;;1.90;;
37771;SDS011;23610;59.380;24.642;2023-07-22T13:40:45;4.93;;;1.30;;
37771;SDS011;23610;59.380;24.642;2023-07-22T13:45:48;3.53;;;0.70;;
37771;SDS011;23610;59.380;24.642;2023-07-22T13:50:50;4.65;;;1.10;;
37771;SDS011;23610;59.380;24.642;2023-07-22T13:55:53;3.13;;;1.20;;
37771;SDS011;23610;59.380;24.642;2023-07-22T14:00:56;3.05;;;1.10;;
37771;SDS011;23610;59.380;24.642;2023-07-22T14:06:01;3.80;;;1.15;;
37771;SDS011;23610;59.380;24.642;2023-07-22T14:11:04;3.70;;;1.40;;
37771;SDS011;23610;59.380;24.642;2023-07-22T14:16:07;3.83;;;1.70;;
37771;SDS011;23610;59.380;24.642;2023-07-22T14:21:23;2.60;;;2.00;;
37771;SDS011;23610;59.380;24.642;2023-07-22T14:26:26;3.08;;;2.30;;
37771;SDS011;23610;59.380;24.642;2023-07-22T14:31:29;6.88;;;3.55;;
37771;SDS011;23610;59.380;24.642;2023-07-22T14:36:32;8.02;;;4.40;;
37771;SDS011;23610;59.380;24.642;2023-07-22T14:41:34;2.28;;;2.08;;
37771;SDS011;23610;59.380;24.642;2023-07-22T14:46:37;3.13;;;2.50;;
37771;SDS011;23610;59.380;24.642;2023-07-22T14:51:40;4.03;;;1.75;;
37771;SDS011;23610;59.380;24.642;2023-07-22T14:56:42;4.07;;;1.90;;
37771;SDS011;23610;59.380;24.642;2023-07-22T15:01:45;3.72;;;2.38;;
37771;SDS011;23610;59.380;24.642;2023-07-22T15:06:47;2.58;;;2.20;;
37771;SDS011;23610;59.380;24.642;2023-07-22T15:11:52;4.40;;;1.67;;
37771;SDS011;23610;59.380;24.642;2023-07-22T15:16:54;3.28;;;1.92;;
37771;SDS011;23610;59.380;24.642;2023-07-22T15:21:57;5.65;;;2.03;;
37771;SDS011;23610;59.380;24.642;2023-07-22T15:26:59;3.92;;;2.15;;
37771;SDS011;23610;59.380;24.642;2023-07-22T15:32:16;2.92;;;1.42;;
37771;SDS011;23610;59.380;24.642;2023-07-22T15:37:19;4.28;;;1.55;;
37771;SDS011;23610;59.380;24.642;2023-07-22T15:42:21;5.63;;;2.03;;
37771;SDS011;23610;59.380;24.642;2023-07-22T15:47:24;7.95;;;2.08;;
37771;SDS011;23610;59.380;24.642;2023-07-22T15:52:26;7.18;;;2.03;;
37771;SDS011;23610;59.380;24.642;2023-07-22T15:57:29;4.28;;;1.75;;
37771;SDS011;23610;59.380;24.642;2023-07-22T16:02:32;6.53;;;2.45;;
37771;SDS011;23610;59.380;24.642;2023-07-22T16:07:35;8.57;;;2.00;;
37771;SDS011;23610;59.380;24.642;2023-07-22T16:12:38;5.53;;;1.55;;
37771;SDS011;23610;59.380;24.642;2023-07-22T16:17:40;3.47;;;1.70;;
37771;SDS011;23610;59.380;24.642;2023-07-22T16:22:44;57.13;;;32.47;;
37771;SDS011;23610;59.380;24.642;2023-07-22T16:27:46;66.68;;;38.92;;
37771;SDS011;23610;59.380;24.642;2023-07-22T16:32:49;23.67;;;15.38;;
37771;SDS011;23610;59.380;24.642;2023-07-22T16:37:52;8.82;;;4.93;;
37771;SDS011;23610;59.380;24.642;2023-07-22T16:42:54;5.53;;;2.38;;
37771;SDS011;23610;59.380;24.642;2023-07-22T16:47:57;2.47;;;1.38;;
37771;SDS011;23610;59.380;24.642;2023-07-22T16:53:00;4.55;;;1.38;;
37771;SDS011;23610;59.380;24.642;2023-07-22T16:58:05;1.00;;;0.82;;
37771;SDS011;23610;59.380;24.642;2023-07-22T17:03:07;2.67;;;0.93;;
37771;SDS011;23610;59.380;24.642;2023-07-22T17:08:10;2.47;;;1.00;;
37771;SDS011;23610;59.380;24.642;2023-07-22T17:13:13;1.92;;;1.25;;
37771;SDS011;23610;59.380;24.642;2023-07-22T17:18:18;1.20;;;1.10;;
37771;SDS011;23610;59.380;24.642;2023-07-22T17:23:24;3.70;;;1.20;;
37771;SDS011;23610;59.380;24.642;2023-07-22T17:28:27;1.27;;;1.13;;
37771;SDS011;23610;59.380;24.642;2023-07-22T17:33:30;2.20;;;1.20;;
37771;SDS011;23610;59.380;24.642;2023-07-22T17:38:33;7.72;;;1.80;;
37771;SDS011;23610;59.380;24.642;2023-07-22T17:43:36;2.50;;;1.00;;
37771;SDS011;23610;59.380;24.642;2023-07-22T17:48:38;2.05;;;0.95;;
37771;SDS011;23610;59.380;24.642;2023-07-22T17:53:41;4.68;;;1.45;;
37771;SDS011;23610;59.380;24.642;2023-07-22T17:58:43;1.73;;;1.25;;
37771;SDS011;23610;59.380;24.642;2023-07-22T18:03:46;2.28;;;1.27;;
37771;SDS011;23610;59.380;24.642;2023-07-22T18:08:49;5.30;;;1.42;;
37771;SDS011;23610;59.380;24.642;2023-07-22T18:13:51;3.90;;;1.73;;
37771;SDS011;23610;59.380;24.642;2023-07-22T18:18:55;3.75;;;1.40;;
37771;SDS011;23610;59.380;24.642;2023-07-22T18:23:58;5.28;;;1.77;;
37771;SDS011;23610;59.380;24.642;2023-07-22T18:29:01;5.00;;;2.10;;
37771;SDS011;23610;59.380;24.642;2023-07-22T18:34:03;4.72;;;2.50;;
37771;SDS011;23610;59.380;24.642;2023-07-22T18:39:06;4.15;;;3.17;;
37771;SDS011;23610;59.380;24.642;2023-07-22T18:44:13;4.60;;;2.97;;
37771;SDS011;23610;59.380;24.642;2023-07-22T18:49:20;5.35;;;2.97;;
37771;SDS011;23610;59.380;24.642;2023-07-22T18:54:22;4.68;;;2.78;;
37771;SDS011;23610;59.380;24.642;2023-07-22T18:59:25;5.95;;;2.88;;
37771;SDS011;23610;59.380;24.642;2023-07-22T19:04:27;3.40;;;2.17;;
37771;SDS011;23610;59.380;24.642;2023-07-22T19:09:30;7.20;;;2.65;;
37771;SDS011;23610;59.380;24.642;2023-07-22T19:14:33;5.00;;;2.55;;
37771;SDS011;23610;59.380;24.642;2023-07-22T19:19:35;5.18;;;3.15;;
37771;SDS011;23610;59.380;24.642;2023-07-22T19:24:38;7.70;;;4.20;;
37771;SDS011;23610;59.380;24.642;2023-07-22T19:29:42;7.10;;;4.50;;
37771;SDS011;23610;59.380;24.642;2023-07-22T19:39:48;6.22;;;4.20;;
37771;SDS011;23610;59.380;24.642;2023-07-22T19:44:51;6.70;;;4.25;;
37771;SDS011;23610;59.380;24.642;2023-07-22T19:49:53;16.90;;;4.93;;
37771;SDS011;23610;59.380;24.642;2023-07-22T19:54:56;6.47;;;3.85;;
37771;SDS011;23610;59.380;24.642;2023-07-22T19:59:59;5.07;;;3.50;;
37771;SDS011;23610;59.380;24.642;2023-07-22T20:05:01;12.57;;;4.95;;
37771;SDS011;23610;59.380;24.642;2023-07-22T20:10:04;6.13;;;4.75;;
37771;SDS011;23610;59.380;24.642;2023-07-22T20:15:07;7.78;;;4.60;;
37771;SDS011;23610;59.380;24.642;2023-07-22T20:20:10;6.75;;;4.03;;
37771;SDS011;23610;59.380;24.642;2023-07-22T20:25:13;7.07;;;4.13;;
37771;SDS011;23610;59.380;24.642;2023-07-22T20:30:16;6.20;;;2.97;;
37771;SDS011;23610;59.380;24.642;2023-07-22T20:35:18;5.32;;;3.28;;
37771;SDS011;23610;59.380;24.642;2023-07-22T20:40:21;3.88;;;3.00;;
37771;SDS011;23610;59.380;24.642;2023-07-22T20:45:24;8.48;;;3.92;;
37771;SDS011;23610;59.380;24.642;2023-07-22T20:50:27;4.45;;;3.45;;
37771;SDS011;23610;59.380;24.642;2023-07-22T20:55:29;8.60;;;4.30;;
37771;SDS011;23610;59.380;24.642;2023-07-22T21:00:32;5.90;;;3.60;;
37771;SDS011;23610;59.380;24.642;2023-07-22T21:05:34;11.45;;;4.18;;
37771;SDS011;23610;59.380;24.642;2023-07-22T21:10:37;10.48;;;3.85;;
37771;SDS011;23610;59.380;24.642;2023-07-22T21:15:40;7.00;;;4.40;;
37771;SDS011;23610;59.380;24.642;2023-07-22T21:20:42;8.77;;;5.45;;
37771;SDS011;23610;59.380;24.642;2023-07-22T21:25:45;6.95;;;5.80;;
37771;SDS011;23610;59.380;24.642;2023-07-22T21:30:48;14.55;;;5.55;;
37771;SDS011;23610;59.380;24.642;2023-07-22T21:35:51;13.18;;;6.32;;
37771;SDS011;23610;59.380;24.642;2023-07-22T21:40:54;9.05;;;5.93;;
37771;SDS011;23610;59.380;24.642;2023-07-22T21:45:56;9.77;;;4.65;;
37771;SDS011;23610;59.380;24.642;2023-07-22T21:50:59;10.85;;;5.28;;
37771;SDS011;23610;59.380;24.642;2023-07-22T21:56:03;5.95;;;3.55;;
37771;SDS011;23610;59.380;24.642;2023-07-22T22:01:05;6.55;;;3.60;;
37771;SDS011;23610;59.380;24.642;2023-07-22T22:06:08;8.13;;;3.55;;
37771;SDS011;23610;59.380;24.642;2023-07-22T22:11:11;7.25;;;4.03;;
37771;SDS011;23610;59.380;24.642;2023-07-22T22:16:13;4.75;;;3.28;;
37771;SDS011;23610;59.380;24.642;2023-07-22T22:21:16;3.63;;;3.10;;
37771;SDS011;23610;59.380;24.642;2023-07-22T22:26:18;5.15;;;3.25;;
37771;SDS011;23610;59.380;24.642;2023-07-22T22:31:21;18.88;;;3.40;;
37771;SDS011;23610;59.380;24.642;2023-07-22T22:36:24;4.05;;;3.17;;
37771;SDS011;23610;59.380;24.642;2023-07-22T22:41:26;3.55;;;2.70;;
37771;SDS011;23610;59.380;24.642;2023-07-22T22:46:29;4.38;;;2.78;;
37771;SDS011;23610;59.380;24.642;2023-07-22T22:51:32;3.05;;;2.25;;
37771;SDS011;23610;59.380;24.642;2023-07-22T22:56:35;7.07;;;2.92;;
37771;SDS011;23610;59.380;24.642;2023-07-22T23:01:38;4.00;;;2.60;;
37771;SDS011;23610;59.380;24.642;2023-07-22T23:06:41;6.93;;;2.85;;
37771;SDS011;23610;59.380;24.642;2023-07-22T23:11:44;5.40;;;2.10;;
37771;SDS011;23610;59.380;24.642;2023-07-22T23:16:46;3.97;;;2.30;;
37771;SDS011;23610;59.380;24.642;2023-07-22T23:21:49;2.78;;;2.05;;
37771;SDS011;23610;59.380;24.642;2023-07-22T23:26:51;3.90;;;2.28;;
37771;SDS011;23610;59.380;24.642;2023-07-22T23:31:54;3.30;;;2.50;;
37771;SDS011;23610;59.380;24.642;2023-07-22T23:36:57;3.85;;;2.20;;
37771;SDS011;23610;59.380;24.642;2023-07-22T23:41:59;3.00;;;1.92;;
37771;SDS011;23610;59.380;24.642;2023-07-22T23:47:03;4.70;;;2.03;;
37771;SDS011;23610;59.380;24.642;2023-07-22T23:52:06;3.50;;;2.03;;
37771;SDS011;23610;59.380;24.642;2023-07-22T23:57:09;6.03;;;2.88;;
